Time,TemperatureF,DewpointF,PressureIn,WindDirection,WindDirectionDegrees,WindSpeedMPH,WindSpeedGustMPH,Humidity,HourlyPrecipIn,Conditions,Clouds,dailyrainin,SoftwareType,DateUTC
2013-11-02 00:22:00,62.0,45.0,29.65,WNW,302,3.0,6.0,53,0.00,,,0.06,,2013-11-02 05:22:00,
2013-11-02 00:34:00,62.0,45.0,29.65,WNW,302,3.0,6.0,53,0.00,,,0.06,,2013-11-02 05:34:00,
2013-11-02 00:52:00,62.0,45.0,29.33,NW,318,2.0,10.0,53,0.00,,,0.06,,2013-11-02 05:52:00,
2013-11-02 01:02:00,62.0,45.0,29.33,NW,318,2.0,10.0,53,0.00,,,0.06,,2013-11-02 06:02:00,
2013-11-02 01:12:00,62.0,45.0,29.33,NW,318,2.0,10.0,53,0.00,,,0.06,,2013-11-02 06:12:00,
2013-11-02 01:22:00,62.0,45.0,29.33,NW,318,2.0,10.0,53,0.00,,,0.06,,2013-11-02 06:22:00,
2013-11-02 06:22:00,50.0,41.0,30.11,NW,308,1.0,3.0,72,0.00,,,0.06,,2013-11-02 11:22:00,
2013-11-02 06:30:00,50.0,42.0,29.97,NW,308,1.0,3.0,73,0.00,,,0.06,,2013-11-02 11:30:00,
2013-11-02 06:33:00,50.0,41.0,30.11,NW,308,1.0,3.0,72,0.00,,,0.06,,2013-11-02 11:33:00,
2013-11-02 06:42:00,50.0,41.0,30.11,NW,308,1.0,3.0,72,0.00,,,0.06,,2013-11-02 11:42:00,
2013-11-02 06:52:00,50.0,42.0,29.97,NW,308,1.0,3.0,73,0.00,,,0.06,,2013-11-02 11:52:00,
2013-11-02 07:02:00,50.0,42.0,29.97,NW,308,1.0,3.0,73,0.00,,,0.06,,2013-11-02 12:02:00,
2013-11-02 07:12:00,50.0,42.0,29.97,NW,308,1.0,3.0,73,0.00,,,0.06,,2013-11-02 12:12:00,
2013-11-02 07:21:00,50.0,42.0,29.97,NW,308,1.0,3.0,73,0.00,,,0.06,,2013-11-02 12:21:00,
2013-11-02 08:22:00,50.0,39.0,30.06,East,101,1.0,7.0,67,0.00,,,0.06,,2013-11-02 13:22:00,
2013-11-02 08:32:00,50.0,39.0,30.06,East,101,1.0,7.0,67,0.00,,,0.06,,2013-11-02 13:32:00,
2013-11-02 08:42:00,50.0,39.0,30.06,East,101,1.0,7.0,67,0.00,,,0.06,,2013-11-02 13:42:00,
2013-11-02 08:52:00,50.0,40.0,30.11,NNW,344,2.0,5.0,68,0.00,,,0.06,,2013-11-02 13:52:00,
2013-11-02 09:21:00,50.0,40.0,30.12,North,354,2.0,5.0,68,0.00,,,0.06,,2013-11-02 14:21:00,
2013-11-02 09:32:00,50.0,40.0,30.12,North,354,2.0,5.0,68,0.00,,,0.06,,2013-11-02 14:32:00,
2013-11-02 09:42:00,50.0,40.0,30.12,North,354,2.0,5.0,68,0.00,,,0.06,,2013-11-02 14:42:00,
2013-11-02 09:52:00,50.0,40.0,30.09,NNW,333,2.0,5.0,68,0.00,,,0.06,,2013-11-02 14:52:00,
2013-11-02 10:22:00,55.0,41.0,30.22,NNE,29,3.0,10.0,59,0.00,,,0.06,,2013-11-02 15:22:00,
2013-11-02 10:43:00,56.0,42.0,30.18,NNE,20,1.0,9.0,59,0.00,,,0.06,,2013-11-02 15:43:00,
2013-11-02 10:53:00,56.0,41.0,30.14,NW,315,2.0,10.0,57,0.00,,,0.06,,2013-11-02 15:53:00,
2013-11-02 11:03:00,56.0,41.0,30.14,NW,315,2.0,10.0,57,0.00,,,0.06,,2013-11-02 16:03:00,
2013-11-02 11:13:00,56.0,41.0,30.14,NW,315,2.0,10.0,57,0.00,,,0.06,,2013-11-02 16:13:00,
2013-11-02 11:23:00,56.0,41.0,30.14,NW,315,2.0,10.0,57,0.00,,,0.06,,2013-11-02 16:23:00,
2013-11-02 13:53:00,63.0,38.0,30.19,WNW,292,5.0,9.0,40,0.00,,,0.06,,2013-11-02 18:53:00,
2013-11-02 14:11:00,63.0,38.0,30.15,WNW,298,5.0,12.0,39,0.00,,,0.06,,2013-11-02 19:11:00,
2013-11-02 14:21:00,63.0,38.0,30.15,WNW,298,5.0,12.0,39,0.00,,,0.06,,2013-11-02 19:21:00,
2013-11-02 14:30:00,63.0,39.0,30.14,NNE,29,5.0,12.0,41,0.00,,,0.06,,2013-11-02 19:30:00,
2013-11-02 14:42:00,63.0,38.0,30.11,WNW,299,6.0,12.0,39,0.00,,,0.06,,2013-11-02 19:42:00,
2013-11-02 14:52:00,63.0,39.0,30.14,NNE,29,5.0,12.0,41,0.00,,,0.06,,2013-11-02 19:52:00,
2013-11-02 15:02:00,63.0,39.0,30.14,NNE,29,5.0,12.0,41,0.00,,,0.06,,2013-11-02 20:02:00,
2013-11-02 15:12:00,63.0,39.0,30.14,NNE,29,5.0,12.0,41,0.00,,,0.06,,2013-11-02 20:12:00,
2013-11-02 15:22:00,63.0,39.0,30.14,NNE,29,5.0,12.0,41,0.00,,,0.06,,2013-11-02 20:22:00,
2013-11-02 15:50:00,63.0,39.0,30.14,NNE,32,5.0,5.0,41,0.00,,,0.06,,2013-11-02 20:50:00,
2013-11-02 16:22:00,63.0,39.0,30.14,NNE,32,5.0,5.0,41,0.00,,,0.06,,2013-11-02 21:22:00,
2013-11-02 16:44:00,63.0,39.0,30.14,NNE,32,5.0,5.0,41,0.00,,,0.06,,2013-11-02 21:44:00,
2013-11-02 18:52:00,63.0,39.0,30.14,North,0,2.0,0.0,41,0.00,,,0.06,,2013-11-02 23:52:00,
2013-11-02 19:11:00,62.0,39.0,30.11,NW,322,0.0,1.0,42,0.00,,,0.06,,2013-11-03 00:11:00,
2013-11-02 19:22:00,62.0,39.0,30.11,NW,322,0.0,1.0,42,0.00,,,0.06,,2013-11-03 00:22:00,
2013-11-02 19:42:00,62.0,39.0,30.11,NW,322,0.0,1.0,43,0.00,,,0.06,,2013-11-03 00:42:00,
2013-11-02 19:52:00,62.0,39.0,30.11,NW,322,0.0,1.0,43,0.00,,,0.06,,2013-11-03 00:52:00,
2013-11-02 20:02:00,62.0,39.0,30.11,NW,322,0.0,1.0,43,0.00,,,0.06,,2013-11-03 01:02:00,
2013-11-02 20:52:00,53.0,42.0,30.04,NW,322,0.0,0.0,66,0.00,,,0.06,,2013-11-03 01:52:00,
2013-11-02 21:11:00,52.0,42.0,30.03,NW,322,0.0,0.0,69,0.00,,,0.06,,2013-11-03 02:11:00,
2013-11-02 21:21:00,52.0,42.0,30.03,NW,322,0.0,0.0,69,0.00,,,0.06,,2013-11-03 02:21:00,
2013-11-02 21:52:00,51.0,42.0,29.82,NW,322,0.0,0.0,72,0.00,,,0.06,,2013-11-03 02:52:00,
2013-11-02 22:11:00,51.0,43.0,29.68,NW,322,0.0,0.0,73,0.00,,,0.06,,2013-11-03 03:11:00,
2013-11-02 22:22:00,48.0,41.0,29.68,NW,322,0.0,0.0,78,0.00,,,0.06,,2013-11-03 03:22:00,
2013-11-02 22:44:00,48.0,42.0,29.68,NW,322,0.0,0.0,79,0.00,,,0.06,,2013-11-03 03:44:00,
2013-11-02 22:54:00,48.0,42.0,29.68,NW,322,0.0,0.0,79,0.00,,,0.06,,2013-11-03 03:54:00,
2013-11-02 23:00:00,47.0,41.0,29.83,NW,322,0.0,0.0,80,0.00,,,0.06,,2013-11-03 04:00:00,
2013-11-02 23:02:00,-999.0,-99.9,29.68,NW,322,0.0,0.0,-999,-99.99,,,-99.99,,2013-11-03 04:02:00,
2013-11-02 23:13:00,48.0,42.0,29.68,NW,322,0.0,0.0,79,0.00,,,0.06,,2013-11-03 04:13:00,
2013-11-02 23:23:00,47.0,41.0,29.83,NW,322,0.0,0.0,80,0.00,,,0.06,,2013-11-03 04:23:00,
2013-11-02 23:34:00,47.0,41.0,29.83,NW,322,0.0,0.0,80,0.00,,,0.06,,2013-11-03 04:34:00,
2013-11-02 23:44:00,47.0,41.0,29.83,NW,322,0.0,0.0,80,0.00,,,0.06,,2013-11-03 04:44:00,
2013-11-02 23:52:00,47.0,41.0,29.83,NW,322,0.0,0.0,80,0.00,,,0.06,,2013-11-03 04:52:00,